Time;durP1;ratioP1;P1;durP2;ratioP2;P2;SDS_P1;SDS_P2;PMS_P1;PMS_P2;Temp;Humidity;BMP_temperature;BMP_pressure;BME280_temperature;BME280_humidity;BME280_pressure;Samples;Min_cycle;Max_cycle;Signal;HPM_P1;HPM_P2
2022/10/20 00:02:04;;;;;;;10.15;6.00;;;;;;;;;;5014551;28;20220;-65
2022/10/20 00:04:29;;;;;;;9.73;6.18;;;;;;;;;;5015446;28;20225;-65
2022/10/20 00:06:55;;;;;;;10.20;5.80;;;;;;;;;;5015031;28;20244;-65
2022/10/20 00:09:20;;;;;;;11.77;6.90;;;;;;;;;;5014979;28;20222;-65
2022/10/20 00:11:45;;;;;;;10.15;6.00;;;;;;;;;;5015595;28;20676;-65
2022/10/20 00:14:10;;;;;;;13.00;6.53;;;;;;;;;;5014323;28;20227;-65
2022/10/20 00:16:37;;;;;;;12.57;5.97;;;;;;;;;;5015314;28;20629;-65
2022/10/20 00:19:02;;;;;;;11.88;6.43;;;;;;;;;;5013440;28;20236;-65
2022/10/20 00:21:27;;;;;;;11.73;6.03;;;;;;;;;;5014497;28;20231;-64
2022/10/20 00:23:53;;;;;;;9.68;5.93;;;;;;;;;;5015262;28;20558;-65
2022/10/20 00:26:20;;;;;;;10.20;5.97;;;;;;;;;;5013522;28;20212;-65
2022/10/20 00:28:45;;;;;;;8.98;5.88;;;;;;;;;;5013195;28;20715;-65
2022/10/20 00:31:11;;;;;;;9.43;6.32;;;;;;;;;;5013523;28;20208;-65
2022/10/20 00:33:36;;;;;;;10.63;6.50;;;;;;;;;;5013853;28;20232;-65
2022/10/20 00:36:01;;;;;;;15.88;6.70;;;;;;;;;;5013961;28;20212;-65
2022/10/20 00:38:27;;;;;;;11.23;6.55;;;;;;;;;;5014651;28;20212;-65
2022/10/20 00:40:52;;;;;;;14.27;6.22;;;;;;;;;;5014933;28;20219;-65
2022/10/20 00:43:17;;;;;;;10.05;6.47;;;;;;;;;;5028956;28;20679;-65
2022/10/20 00:45:43;;;;;;;10.18;6.28;;;;;;;;;;5015021;28;20215;-65
2022/10/20 00:48:27;;;;;;;10.30;5.95;;;;;;;;;;5014409;28;20228;-65
2022/10/20 00:50:53;;;;;;;10.07;6.40;;;;;;;;;;5014042;28;20762;-65
2022/10/20 00:53:18;;;;;;;9.25;5.88;;;;;;;;;;5013003;28;20247;-65
2022/10/20 00:55:45;;;;;;;12.23;6.43;;;;;;;;;;5013128;28;20220;-65
2022/10/20 00:58:10;;;;;;;11.35;6.57;;;;;;;;;;5011865;28;20700;-65
2022/10/20 01:00:36;;;;;;;11.80;6.70;;;;;;;;;;5014500;28;20219;-65
2022/10/20 01:03:01;;;;;;;10.27;6.18;;;;;;;;;;5012831;28;20299;-65
2022/10/20 01:05:27;;;;;;;12.95;6.90;;;;;;;;;;5012510;28;20216;-65
2022/10/20 01:07:52;;;;;;;11.38;6.40;;;;;;;;;;5014293;28;20209;-65
2022/10/20 01:10:17;;;;;;;12.32;6.63;;;;;;;;;;5013267;28;20227;-63
2022/10/20 01:12:43;;;;;;;11.88;6.30;;;;;;;;;;5003779;28;20259;-64
2022/10/20 01:15:11;;;;;;;9.55;6.20;;;;;;;;;;5003078;28;20204;-65
2022/10/20 01:17:36;;;;;;;9.88;6.13;;;;;;;;;;5001948;28;20243;-64
2022/10/20 01:20:10;;;;;;;10.95;6.32;;;;;;;;;;5003509;28;20217;-65
2022/10/20 01:22:38;;;;;;;10.45;6.53;;;;;;;;;;5000792;28;20295;-64
2022/10/20 01:25:10;;;;;;;13.45;7.30;;;;;;;;;;4995963;28;20771;-65
2022/10/20 01:27:41;;;;;;;12.18;6.32;;;;;;;;;;4996092;28;20212;-64
2022/10/20 01:30:11;;;;;;;12.85;6.43;;;;;;;;;;4986153;28;20216;-65
2022/10/20 01:32:42;;;;;;;10.80;6.28;;;;;;;;;;5001790;28;20219;-64
2022/10/20 01:35:18;;;;;;;9.73;6.07;;;;;;;;;;5001969;28;20509;-65
2022/10/20 01:37:46;;;;;;;11.32;6.28;;;;;;;;;;5004068;28;20238;-64
2022/10/20 01:40:20;;;;;;;10.93;6.28;;;;;;;;;;5000910;28;20220;-65
2022/10/20 01:42:46;;;;;;;12.90;6.45;;;;;;;;;;4998496;28;20988;-64
2022/10/20 01:45:11;;;;;;;11.30;6.70;;;;;;;;;;5000248;28;20890;-65
2022/10/20 01:47:36;;;;;;;10.93;6.32;;;;;;;;;;4979322;28;20274;-64
2022/10/20 01:50:03;;;;;;;10.18;5.95;;;;;;;;;;4995318;28;20582;-65
2022/10/20 01:52:28;;;;;;;10.07;6.50;;;;;;;;;;4996073;28;20584;-64
2022/10/20 01:54:53;;;;;;;10.52;6.03;;;;;;;;;;5003386;28;20213;-64
2022/10/20 01:57:26;;;;;;;9.70;6.00;;;;;;;;;;5002759;28;20224;-64
2022/10/20 02:00:03;;;;;;;13.10;6.28;;;;;;;;;;5003076;28;20216;-64
2022/10/20 02:02:32;;;;;;;10.13;5.82;;;;;;;;;;5003196;28;20216;-64
2022/10/20 02:04:58;;;;;;;13.18;6.03;;;;;;;;;;4994032;28;20703;-64
2022/10/20 02:07:24;;;;;;;10.55;6.32;;;;;;;;;;5002272;28;20274;-65
2022/10/20 02:09:51;;;;;;;9.52;6.32;;;;;;;;;;4993662;28;20208;-65
2022/10/20 02:12:18;;;;;;;11.18;6.68;;;;;;;;;;4994591;28;20735;-65
2022/10/20 02:14:44;;;;;;;11.65;6.00;;;;;;;;;;5004556;28;20208;-65
2022/10/20 02:17:10;;;;;;;11.82;6.35;;;;;;;;;;5021442;28;20239;-65
2022/10/20 02:19:37;;;;;;;9.30;6.20;;;;;;;;;;5017491;28;20215;-65
2022/10/20 02:22:02;;;;;;;16.45;6.95;;;;;;;;;;5010891;28;20308;-65
2022/10/20 02:24:28;;;;;;;9.25;6.10;;;;;;;;;;5003459;28;20295;-65
2022/10/20 02:26:54;;;;;;;10.85;6.28;;;;;;;;;;4985544;28;20558;-65
2022/10/20 02:29:20;;;;;;;14.63;6.63;;;;;;;;;;5000626;28;20267;-65
2022/10/20 02:31:46;;;;;;;14.35;6.80;;;;;;;;;;5001278;28;20208;-65
2022/10/20 02:34:11;;;;;;;10.38;6.88;;;;;;;;;;5001200;28;20215;-65
2022/10/20 02:36:37;;;;;;;10.73;5.88;;;;;;;;;;5002489;28;20251;-65
2022/10/20 02:39:02;;;;;;;10.38;6.78;;;;;;;;;;5002461;28;20372;-64
2022/10/20 02:41:29;;;;;;;13.82;6.63;;;;;;;;;;4998227;28;20216;-65
2022/10/20 02:43:55;;;;;;;11.85;6.88;;;;;;;;;;4994344;28;20812;-65
2022/10/20 02:46:20;;;;;;;9.95;6.03;;;;;;;;;;4994234;28;20228;-65
2022/10/20 02:48:45;;;;;;;11.25;6.45;;;;;;;;;;4999535;28;20216;-65
2022/10/20 02:51:12;;;;;;;13.32;6.32;;;;;;;;;;5001798;28;20335;-65
2022/10/20 02:53:37;;;;;;;10.55;6.60;;;;;;;;;;5003045;28;20642;-65
2022/10/20 02:56:02;;;;;;;9.68;6.30;;;;;;;;;;4991969;28;20763;-65
2022/10/20 02:58:28;;;;;;;8.65;6.05;;;;;;;;;;5002843;28;20232;-65
2022/10/20 03:00:53;;;;;;;11.60;6.25;;;;;;;;;;5002495;28;20302;-65
2022/10/20 03:03:18;;;;;;;10.38;6.78;;;;;;;;;;4998827;28;20240;-65
2022/10/20 03:05:44;;;;;;;11.77;5.88;;;;;;;;;;4993725;28;20211;-64
2022/10/20 03:08:10;;;;;;;21.17;7.35;;;;;;;;;;4994407;28;20223;-65
2022/10/20 03:10:36;;;;;;;11.45;6.50;;;;;;;;;;4996492;28;20235;-65
2022/10/20 03:13:01;;;;;;;10.23;6.43;;;;;;;;;;5001964;28;20562;-65
2022/10/20 03:15:27;;;;;;;10.18;5.82;;;;;;;;;;5001349;28;20208;-65
2022/10/20 03:17:52;;;;;;;10.85;5.82;;;;;;;;;;5001975;28;20238;-64
2022/10/20 03:20:17;;;;;;;11.38;6.35;;;;;;;;;;5001916;28;20216;-65
2022/10/20 03:22:43;;;;;;;9.88;6.20;;;;;;;;;;5004433;28;20252;-64
2022/10/20 03:25:08;;;;;;;8.43;6.05;;;;;;;;;;5005275;28;20216;-65
2022/10/20 03:27:33;;;;;;;10.30;6.30;;;;;;;;;;4998931;28;20240;-65
2022/10/20 03:29:58;;;;;;;11.98;6.70;;;;;;;;;;4998192;28;20224;-65
2022/10/20 03:32:24;;;;;;;10.70;6.45;;;;;;;;;;4997444;28;20233;-65
2022/10/20 03:34:49;;;;;;;10.18;6.15;;;;;;;;;;5005860;28;20228;-65
2022/10/20 03:37:14;;;;;;;13.85;6.30;;;;;;;;;;5005517;28;20220;-65
2022/10/20 03:39:39;;;;;;;10.38;6.13;;;;;;;;;;5005664;28;20211;-64
2022/10/20 03:42:05;;;;;;;9.73;6.55;;;;;;;;;;5005468;28;20248;-65
2022/10/20 03:44:30;;;;;;;13.20;7.22;;;;;;;;;;5006173;28;20747;-65
2022/10/20 03:46:55;;;;;;;12.45;6.57;;;;;;;;;;5005240;28;20570;-65
2022/10/20 03:49:21;;;;;;;11.70;6.95;;;;;;;;;;5000593;28;20212;-65
2022/10/20 03:51:46;;;;;;;11.55;7.03;;;;;;;;;;4997862;28;20303;-65
2022/10/20 03:54:11;;;;;;;11.15;6.28;;;;;;;;;;4996926;28;20722;-65
2022/10/20 03:56:36;;;;;;;10.70;6.43;;;;;;;;;;5002797;28;20228;-65
2022/10/20 03:59:02;;;;;;;11.55;7.28;;;;;;;;;;5004255;28;20220;-65
2022/10/20 04:01:29;;;;;;;14.13;7.35;;;;;;;;;;5005767;28;20217;-64
2022/10/20 04:03:54;;;;;;;12.32;6.88;;;;;;;;;;5003859;28;20761;-65
2022/10/20 04:06:20;;;;;;;10.10;6.60;;;;;;;;;;5004495;28;20662;-65
2022/10/20 04:08:45;;;;;;;12.68;6.55;;;;;;;;;;5005415;28;20205;-65
2022/10/20 04:11:10;;;;;;;10.77;6.47;;;;;;;;;;5002629;28;20220;-65
2022/10/20 04:13:35;;;;;;;9.52;6.13;;;;;;;;;;4997409;28;20216;-65
2022/10/20 04:16:01;;;;;;;11.20;6.40;;;;;;;;;;4996452;28;20224;-65
2022/10/20 04:18:26;;;;;;;12.50;6.55;;;;;;;;;;4999745;28;20274;-65
2022/10/20 04:20:51;;;;;;;9.55;6.18;;;;;;;;;;5004038;28;20225;-65
2022/10/20 04:23:17;;;;;;;11.18;7.50;;;;;;;;;;5003513;28;20220;-65
2022/10/20 04:25:44;;;;;;;14.38;7.28;;;;;;;;;;5005193;28;20679;-65
2022/10/20 04:28:09;;;;;;;10.98;6.60;;;;;;;;;;5004019;28;20220;-65
2022/10/20 04:30:36;;;;;;;11.10;7.03;;;;;;;;;;5003844;28;20220;-65
2022/10/20 04:33:02;;;;;;;10.68;6.78;;;;;;;;;;5002314;28;20511;-65
2022/10/20 04:35:27;;;;;;;13.00;6.47;;;;;;;;;;4997681;28;20832;-65
2022/10/20 04:37:53;;;;;;;14.15;6.45;;;;;;;;;;4996790;28;20229;-65
2022/10/20 04:40:18;;;;;;;9.55;6.35;;;;;;;;;;4996852;28;20656;-65
2022/10/20 04:42:43;;;;;;;9.02;6.10;;;;;;;;;;5003362;28;20220;-65
2022/10/20 04:45:09;;;;;;;13.38;7.28;;;;;;;;;;5004669;28;20266;-65
2022/10/20 04:47:36;;;;;;;10.77;7.00;;;;;;;;;;5004505;28;20311;-65
2022/10/20 04:50:01;;;;;;;10.98;6.95;;;;;;;;;;5003486;28;20208;-64
2022/10/20 04:52:27;;;;;;;12.48;6.82;;;;;;;;;;5004800;28;20270;-65
2022/10/20 04:54:52;;;;;;;13.88;7.60;;;;;;;;;;5004282;28;20251;-64
2022/10/20 04:57:18;;;;;;;13.30;7.93;;;;;;;;;;4998778;28;20228;-65
2022/10/20 04:59:43;;;;;;;11.60;6.60;;;;;;;;;;4996215;28;20330;-65
2022/10/20 05:02:10;;;;;;;11.63;7.18;;;;;;;;;;4996213;28;20801;-64
2022/10/20 05:04:35;;;;;;;11.45;6.60;;;;;;;;;;5001248;28;20286;-65
2022/10/20 05:07:00;;;;;;;9.15;6.95;;;;;;;;;;5004655;28;20217;-65
2022/10/20 05:09:26;;;;;;;11.32;7.50;;;;;;;;;;5003703;28;20631;-65
2022/10/20 05:11:52;;;;;;;13.00;7.28;;;;;;;;;;5004178;28;20220;-65
2022/10/20 05:14:17;;;;;;;11.50;6.97;;;;;;;;;;5004010;28;20228;-65
2022/10/20 05:16:43;;;;;;;10.65;6.72;;;;;;;;;;5003212;28;20220;-65
2022/10/20 05:19:08;;;;;;;12.70;7.25;;;;;;;;;;5000838;28;20215;-65
2022/10/20 05:21:33;;;;;;;13.02;7.25;;;;;;;;;;4996482;28;20598;-65
2022/10/20 05:23:59;;;;;;;13.23;7.45;;;;;;;;;;4995417;28;20212;-65
2022/10/20 05:26:25;;;;;;;10.82;7.32;;;;;;;;;;4998579;28;20236;-65
2022/10/20 05:28:50;;;;;;;11.80;7.38;;;;;;;;;;5011032;28;20200;-65
2022/10/20 05:31:16;;;;;;;16.63;7.15;;;;;;;;;;5012119;28;20219;-66
2022/10/20 05:33:43;;;;;;;14.97;8.77;;;;;;;;;;5013605;28;20457;-65
2022/10/20 05:36:09;;;;;;;12.27;7.85;;;;;;;;;;5013522;28;20216;-65
2022/10/20 05:38:35;;;;;;;14.38;7.93;;;;;;;;;;5012497;28;20239;-62
2022/10/20 05:41:06;;;;;;;13.30;7.38;;;;;;;;;;5012926;28;20236;-63
2022/10/20 05:43:31;;;;;;;9.55;6.70;;;;;;;;;;5013251;28;20213;-63
2022/10/20 05:45:56;;;;;;;14.82;7.55;;;;;;;;;;5011535;28;20747;-63
2022/10/20 05:48:21;;;;;;;12.05;7.05;;;;;;;;;;5012544;28;20223;-63
2022/10/20 05:50:47;;;;;;;12.68;7.32;;;;;;;;;;5019132;28;20689;-63
2022/10/20 05:53:12;;;;;;;13.20;8.18;;;;;;;;;;5017873;28;20291;-63
2022/10/20 05:55:37;;;;;;;15.45;7.45;;;;;;;;;;5018199;28;20231;-62
2022/10/20 05:58:02;;;;;;;15.75;7.82;;;;;;;;;;5018964;28;20249;-63
2022/10/20 06:00:30;;;;;;;13.75;7.97;;;;;;;;;;5015448;28;20208;-63
2022/10/20 06:02:55;;;;;;;11.63;7.20;;;;;;;;;;5016967;28;20204;-63
2022/10/20 06:05:21;;;;;;;12.05;7.63;;;;;;;;;;5017621;28;20216;-63
2022/10/20 06:07:46;;;;;;;12.77;8.30;;;;;;;;;;5018324;28;20292;-63
2022/10/20 06:10:11;;;;;;;12.70;7.80;;;;;;;;;;5017898;28;20261;-62
2022/10/20 06:12:36;;;;;;;13.95;8.00;;;;;;;;;;5016601;28;20211;-63
2022/10/20 06:15:02;;;;;;;12.13;7.72;;;;;;;;;;5016760;28;20220;-63
2022/10/20 06:17:27;;;;;;;12.38;7.95;;;;;;;;;;5015710;28;20236;-63
2022/10/20 06:19:53;;;;;;;12.52;7.35;;;;;;;;;;5014111;28;20205;-63
2022/10/20 06:22:18;;;;;;;18.58;8.48;;;;;;;;;;5018434;28;20200;-63
2022/10/20 06:24:43;;;;;;;13.80;8.35;;;;;;;;;;5018538;28;20209;-63
2022/10/20 06:27:08;;;;;;;16.50;7.85;;;;;;;;;;5019014;28;20211;-63
2022/10/20 06:29:34;;;;;;;14.30;8.50;;;;;;;;;;5018392;28;20665;-63
2022/10/20 06:31:59;;;;;;;14.75;8.23;;;;;;;;;;5016808;28;20215;-62
2022/10/20 06:34:24;;;;;;;16.92;8.43;;;;;;;;;;5028373;28;20655;-62
2022/10/20 06:36:50;;;;;;;14.35;8.23;;;;;;;;;;5013484;28;20231;-62
2022/10/20 06:39:17;;;;;;;12.80;7.80;;;;;;;;;;5012330;28;20209;-63
2022/10/20 06:41:42;;;;;;;13.27;7.93;;;;;;;;;;5012257;28;20346;-62
2022/10/20 06:44:07;;;;;;;10.38;7.53;;;;;;;;;;5012508;28;20303;-63
2022/10/20 06:46:34;;;;;;;11.13;7.15;;;;;;;;;;5004912;28;20208;-63
2022/10/20 06:49:00;;;;;;;11.20;7.32;;;;;;;;;;5007285;28;20220;-63
2022/10/20 06:51:25;;;;;;;16.80;7.85;;;;;;;;;;5006227;28;20216;-63
2022/10/20 06:53:50;;;;;;;13.43;7.80;;;;;;;;;;5007897;28;20671;-63
2022/10/20 06:56:17;;;;;;;13.23;7.93;;;;;;;;;;5006006;28;20209;-63
2022/10/20 06:58:43;;;;;;;13.93;8.25;;;;;;;;;;5004149;28;20234;-63
2022/10/20 07:01:10;;;;;;;12.57;8.52;;;;;;;;;;5005298;28;20719;-64
2022/10/20 07:03:35;;;;;;;14.15;8.43;;;;;;;;;;5006449;28;20736;-63
2022/10/20 07:06:01;;;;;;;14.93;8.40;;;;;;;;;;5021037;28;20678;-64
2022/10/20 07:08:26;;;;;;;11.75;8.02;;;;;;;;;;5013356;28;20220;-64
2022/10/20 07:11:02;;;;;;;13.30;8.35;;;;;;;;;;5025388;28;20315;-63
2022/10/20 07:13:27;;;;;;;15.68;8.05;;;;;;;;;;5026911;28;20214;-63
2022/10/20 07:15:53;;;;;;;13.23;8.52;;;;;;;;;;5013036;28;20213;-63
2022/10/20 07:18:19;;;;;;;11.15;8.15;;;;;;;;;;5006317;28;20311;-64
2022/10/20 07:20:44;;;;;;;12.95;8.23;;;;;;;;;;5007200;28;20291;-63
2022/10/20 07:23:10;;;;;;;15.65;8.68;;;;;;;;;;5005945;28;20224;-64
2022/10/20 07:25:35;;;;;;;14.88;8.77;;;;;;;;;;5006859;28;20220;-64
2022/10/20 07:28:00;;;;;;;12.70;8.57;;;;;;;;;;5007096;28;20220;-63
2022/10/20 07:30:25;;;;;;;13.27;8.90;;;;;;;;;;5005523;28;20213;-63
2022/10/20 07:32:51;;;;;;;12.32;8.63;;;;;;;;;;5006416;28;20236;-63
2022/10/20 07:35:16;;;;;;;18.50;8.85;;;;;;;;;;5006413;28;20629;-64
2022/10/20 07:37:41;;;;;;;16.15;8.90;;;;;;;;;;5006157;28;20247;-63
2022/10/20 07:40:07;;;;;;;15.23;8.88;;;;;;;;;;5006402;28;20255;-64
2022/10/20 07:42:32;;;;;;;13.95;9.00;;;;;;;;;;5007263;28;20205;-64
2022/10/20 07:44:57;;;;;;;13.82;9.18;;;;;;;;;;5006291;28;20216;-63
2022/10/20 07:47:22;;;;;;;13.75;9.10;;;;;;;;;;5011768;28;20780;-63
2022/10/20 07:49:48;;;;;;;14.02;9.40;;;;;;;;;;5006538;28;20201;-63
2022/10/20 07:52:15;;;;;;;12.00;8.98;;;;;;;;;;5005847;28;20708;-63
2022/10/20 07:54:40;;;;;;;11.65;9.07;;;;;;;;;;5006643;28;20254;-63
2022/10/20 07:57:05;;;;;;;13.43;9.07;;;;;;;;;;5006523;28;20233;-64
2022/10/20 07:59:31;;;;;;;15.13;9.50;;;;;;;;;;5006287;28;20212;-63
2022/10/20 08:01:56;;;;;;;14.07;9.60;;;;;;;;;;5006521;28;20216;-63
2022/10/20 08:04:21;;;;;;;12.73;9.15;;;;;;;;;;5005974;28;20228;-63
2022/10/20 08:06:46;;;;;;;13.43;9.18;;;;;;;;;;5005748;28;20269;-63
2022/10/20 08:09:12;;;;;;;12.00;8.65;;;;;;;;;;5008286;28;20216;-63
2022/10/20 08:11:37;;;;;;;13.88;9.82;;;;;;;;;;5009800;28;20236;-63
2022/10/20 08:14:02;;;;;;;13.23;8.93;;;;;;;;;;5008894;28;20577;-64
2022/10/20 08:16:28;;;;;;;12.23;8.77;;;;;;;;;;5009259;28;20219;-63
2022/10/20 08:18:53;;;;;;;15.40;8.88;;;;;;;;;;5009597;28;20216;-63
2022/10/20 08:21:19;;;;;;;12.13;8.90;;;;;;;;;;5008581;28;20224;-63
2022/10/20 08:23:44;;;;;;;84.68;47.45;;;;;;;;;;5010012;28;20212;-63
2022/10/20 08:26:10;;;;;;;45.53;26.90;;;;;;;;;;5009693;28;20224;-63
2022/10/20 08:28:35;;;;;;;51.17;37.30;;;;;;;;;;5008948;28;20216;-63
2022/10/20 08:31:01;;;;;;;21.33;17.98;;;;;;;;;;5009704;28;20303;-65
2022/10/20 08:33:27;;;;;;;29.63;26.33;;;;;;;;;;5009712;28;20204;-63
2022/10/20 08:35:52;;;;;;;18.08;12.77;;;;;;;;;;5009424;28;20256;-63
2022/10/20 08:38:17;;;;;;;16.88;11.40;;;;;;;;;;5009550;28;20233;-63
2022/10/20 08:40:43;;;;;;;15.05;10.57;;;;;;;;;;5009326;28;20200;-63
2022/10/20 08:43:11;;;;;;;18.95;12.98;;;;;;;;;;5009258;28;20213;-63
2022/10/20 08:45:36;;;;;;;17.75;10.68;;;;;;;;;;5013014;28;20230;-63
2022/10/20 08:48:02;;;;;;;17.30;10.15;;;;;;;;;;5008748;28;20683;-63
2022/10/20 08:50:29;;;;;;;15.00;11.15;;;;;;;;;;5010048;28;20307;-63
2022/10/20 08:52:55;;;;;;;19.27;14.20;;;;;;;;;;5009793;28;20247;-63
2022/10/20 08:55:28;;;;;;;22.35;17.55;;;;;;;;;;5006865;28;20711;-63
2022/10/20 08:57:55;;;;;;;13.55;10.40;;;;;;;;;;5007836;28;20221;-63
2022/10/20 09:00:21;;;;;;;20.58;12.20;;;;;;;;;;5007236;28;20223;-63
2022/10/20 09:02:47;;;;;;;25.45;16.85;;;;;;;;;;5006884;28;20209;-63
2022/10/20 09:05:13;;;;;;;26.83;19.20;;;;;;;;;;5008566;28;20287;-63
2022/10/20 09:07:38;;;;;;;28.65;20.92;;;;;;;;;;5007609;28;20208;-63
2022/10/20 09:10:06;;;;;;;15.32;10.30;;;;;;;;;;5008466;28;20295;-63
2022/10/20 09:12:32;;;;;;;15.50;9.32;;;;;;;;;;5008246;28;20224;-63
2022/10/20 09:14:57;;;;;;;11.75;9.27;;;;;;;;;;5007572;28;20197;-63
2022/10/20 09:17:22;;;;;;;65.88;46.30;;;;;;;;;;5007645;28;20216;-63
2022/10/20 09:19:49;;;;;;;107.40;95.97;;;;;;;;;;5013122;28;20208;-63
2022/10/20 09:22:14;;;;;;;44.28;40.00;;;;;;;;;;5012313;28;20231;-63
2022/10/20 09:24:41;;;;;;;37.42;33.45;;;;;;;;;;5013668;28;20559;-63
2022/10/20 09:27:16;;;;;;;16.13;10.20;;;;;;;;;;5013703;28;20298;-63
2022/10/20 09:29:42;;;;;;;15.93;9.52;;;;;;;;;;5013370;28;20219;-63
2022/10/20 09:32:17;;;;;;;14.85;11.23;;;;;;;;;;5013514;28;20209;-63
2022/10/20 09:34:42;;;;;;;17.13;10.43;;;;;;;;;;5014101;28;20219;-62
2022/10/20 09:37:07;;;;;;;17.80;10.35;;;;;;;;;;5012474;28;20229;-63
2022/10/20 09:39:41;;;;;;;17.73;13.50;;;;;;;;;;5014026;28;20269;-63
2022/10/20 09:42:11;;;;;;;14.10;9.38;;;;;;;;;;5013399;28;20332;-63
2022/10/20 09:44:47;;;;;;;13.23;8.20;;;;;;;;;;5013286;28;20295;-63
2022/10/20 09:47:13;;;;;;;18.88;15.02;;;;;;;;;;5011917;28;20211;-63
2022/10/20 09:49:38;;;;;;;19.80;11.05;;;;;;;;;;5013843;28;20204;-63
2022/10/20 09:52:12;;;;;;;13.07;8.35;;;;;;;;;;5011188;28;20300;-63
2022/10/20 09:54:37;;;;;;;13.13;9.18;;;;;;;;;;5012336;28;20223;-63
2022/10/20 09:57:04;;;;;;;12.95;8.45;;;;;;;;;;5013225;28;20229;-63
2022/10/20 09:59:31;;;;;;;13.18;8.43;;;;;;;;;;5011667;28;20215;-63
2022/10/20 10:01:57;;;;;;;13.45;8.70;;;;;;;;;;5013396;28;20223;-62
2022/10/20 10:04:38;;;;;;;14.40;8.15;;;;;;;;;;5012967;28;20239;-63
2022/10/20 10:07:04;;;;;;;12.35;8.75;;;;;;;;;;5012829;28;20267;-63
2022/10/20 10:09:32;;;;;;;13.48;8.98;;;;;;;;;;5012395;28;20212;-63
2022/10/20 10:12:00;;;;;;;13.23;9.00;;;;;;;;;;5012426;28;21007;-62
2022/10/20 10:14:26;;;;;;;15.07;8.73;;;;;;;;;;5011940;28;20208;-63
2022/10/20 10:16:51;;;;;;;13.93;9.18;;;;;;;;;;5011850;28;20234;-62
2022/10/20 10:19:18;;;;;;;14.07;8.82;;;;;;;;;;5012266;28;20270;-63
2022/10/20 10:21:45;;;;;;;12.73;8.13;;;;;;;;;;5011625;28;20232;-61
2022/10/20 10:24:29;;;;;;;13.00;8.55;;;;;;;;;;5015159;28;20266;-62
2022/10/20 10:26:54;;;;;;;12.18;8.93;;;;;;;;;;5013103;28;20216;-61
2022/10/20 10:29:23;;;;;;;13.57;8.75;;;;;;;;;;5016557;28;21125;-61
2022/10/20 10:31:50;;;;;;;14.50;9.48;;;;;;;;;;5010658;28;20204;-61
2022/10/20 10:34:15;;;;;;;15.98;9.05;;;;;;;;;;5010535;28;20212;-61
2022/10/20 10:36:41;;;;;;;12.15;9.05;;;;;;;;;;5008861;28;20266;-61
2022/10/20 10:39:09;;;;;;;14.63;9.10;;;;;;;;;;5007037;28;20720;-61
2022/10/20 10:41:40;;;;;;;14.90;9.52;;;;;;;;;;5006220;28;20247;-61
2022/10/20 10:44:09;;;;;;;13.93;9.18;;;;;;;;;;5007413;28;20236;-62
2022/10/20 10:46:35;;;;;;;15.63;9.60;;;;;;;;;;5005825;28;20858;-60
2022/10/20 10:49:12;;;;;;;12.05;9.30;;;;;;;;;;5004335;28;20221;-61
2022/10/20 10:51:46;;;;;;;13.75;8.90;;;;;;;;;;5005912;28;20311;-61
2022/10/20 10:54:11;;;;;;;14.27;9.55;;;;;;;;;;5005567;28;20213;-61
2022/10/20 10:56:43;;;;;;;15.05;9.45;;;;;;;;;;5017708;28;20222;-60
2022/10/20 10:59:10;;;;;;;12.60;9.57;;;;;;;;;;5026384;28;20618;-61
2022/10/20 11:01:50;;;;;;;13.23;9.45;;;;;;;;;;5013013;28;20675;-60
2022/10/20 11:04:22;;;;;;;14.38;9.23;;;;;;;;;;5005410;28;20746;-60
2022/10/20 11:06:56;;;;;;;15.35;9.80;;;;;;;;;;5006982;28;20703;-60
2022/10/20 11:09:25;;;;;;;14.95;10.48;;;;;;;;;;5004623;28;20200;-60
2022/10/20 11:11:55;;;;;;;14.13;10.00;;;;;;;;;;5006131;28;20328;-60
2022/10/20 11:14:30;;;;;;;12.90;10.30;;;;;;;;;;5005668;28;20270;-61
2022/10/20 11:16:59;;;;;;;15.77;9.80;;;;;;;;;;5004555;28;20220;-61
2022/10/20 11:19:43;;;;;;;16.08;9.93;;;;;;;;;;5006220;28;20227;-60
2022/10/20 11:22:15;;;;;;;15.90;10.50;;;;;;;;;;5025039;28;20219;-62
2022/10/20 11:24:46;;;;;;;19.88;12.02;;;;;;;;;;5026324;28;20749;-61
2022/10/20 11:27:13;;;;;;;17.42;11.82;;;;;;;;;;5024762;28;20212;-61
2022/10/20 11:29:41;;;;;;;14.25;10.48;;;;;;;;;;5008930;28;20220;-61
2022/10/20 11:32:08;;;;;;;14.95;11.13;;;;;;;;;;5005199;28;20213;-61
2022/10/20 11:34:33;;;;;;;17.02;10.93;;;;;;;;;;5024801;28;20203;-61
2022/10/20 11:37:01;;;;;;;16.27;10.77;;;;;;;;;;5025224;28;20254;-61
2022/10/20 11:39:26;;;;;;;13.23;10.00;;;;;;;;;;5013519;28;20213;-61
2022/10/20 11:41:52;;;;;;;14.38;9.88;;;;;;;;;;5005038;28;20310;-61
2022/10/20 11:44:32;;;;;;;13.57;10.23;;;;;;;;;;5005774;28;20304;-61
2022/10/20 11:47:00;;;;;;;14.90;11.02;;;;;;;;;;5007346;28;20212;-62
2022/10/20 11:49:25;;;;;;;14.18;10.32;;;;;;;;;;5008791;28;20219;-62
2022/10/20 11:52:03;;;;;;;16.83;10.27;;;;;;;;;;5009103;28;20208;-62
2022/10/20 11:54:31;;;;;;;14.35;10.63;;;;;;;;;;5010093;28;20300;-62
2022/10/20 11:56:57;;;;;;;15.15;10.23;;;;;;;;;;5008883;28;20251;-62
2022/10/20 11:59:26;;;;;;;16.35;11.23;;;;;;;;;;5007615;28;20216;-62
2022/10/20 12:01:52;;;;;;;16.92;11.45;;;;;;;;;;5007803;28;20250;-62
2022/10/20 12:04:29;;;;;;;14.90;11.23;;;;;;;;;;5009256;28;20310;-62
2022/10/20 12:07:07;;;;;;;17.77;12.18;;;;;;;;;;5007561;28;20208;-61
2022/10/20 12:09:44;;;;;;;19.67;11.10;;;;;;;;;;5013093;28;20208;-62
2022/10/20 12:12:11;;;;;;;16.88;10.65;;;;;;;;;;5009486;28;20239;-63
2022/10/20 12:14:40;;;;;;;19.20;11.88;;;;;;;;;;5011948;28;20877;-64
2022/10/20 12:17:12;;;;;;;17.30;11.25;;;;;;;;;;5019529;28;20870;-64
2022/10/20 12:19:37;;;;;;;16.55;12.10;;;;;;;;;;5019679;28;20212;-63
2022/10/20 12:22:02;;;;;;;19.60;12.18;;;;;;;;;;5009501;28;20726;-63
2022/10/20 12:24:29;;;;;;;18.27;11.73;;;;;;;;;;5010270;28;20660;-63
2022/10/20 12:27:00;;;;;;;18.95;11.80;;;;;;;;;;5009631;28;20303;-63
2022/10/20 12:29:31;;;;;;;19.70;12.93;;;;;;;;;;5009786;28;20284;-63
2022/10/20 12:32:15;;;;;;;23.38;12.35;;;;;;;;;;5024315;28;20687;-63
2022/10/20 12:34:40;;;;;;;16.70;10.93;;;;;;;;;;5028312;28;20226;-63
2022/10/20 12:37:06;;;;;;;15.90;11.98;;;;;;;;;;5028800;28;20290;-62
2022/10/20 12:39:32;;;;;;;16.10;11.45;;;;;;;;;;5016787;28;20210;-62
2022/10/20 12:41:58;;;;;;;17.38;11.50;;;;;;;;;;5009269;28;20219;-63
2022/10/20 12:44:23;;;;;;;14.77;11.18;;;;;;;;;;5008754;28;20730;-63
2022/10/20 12:47:05;;;;;;;19.45;12.57;;;;;;;;;;5008185;28;20204;-62
2022/10/20 12:49:31;;;;;;;16.15;10.57;;;;;;;;;;5009479;28;20219;-62
2022/10/20 12:51:57;;;;;;;17.40;12.00;;;;;;;;;;5009695;28;20577;-63
2022/10/20 12:54:23;;;;;;;17.50;11.43;;;;;;;;;;5006089;28;20212;-62
2022/10/20 12:56:48;;;;;;;14.00;10.93;;;;;;;;;;5008793;28;20236;-62
2022/10/20 12:59:21;;;;;;;15.48;10.88;;;;;;;;;;5006644;28;20237;-62
2022/10/20 13:02:05;;;;;;;15.77;10.77;;;;;;;;;;5008483;28;20302;-62
2022/10/20 13:04:49;;;;;;;16.80;10.75;;;;;;;;;;5008387;28;20283;-62
2022/10/20 13:07:14;;;;;;;17.45;11.73;;;;;;;;;;5007458;28;20213;-64
2022/10/20 13:09:53;;;;;;;18.83;11.75;;;;;;;;;;5008135;28;20212;-61
2022/10/20 13:12:23;;;;;;;15.57;10.73;;;;;;;;;;5008599;28;20220;-61
2022/10/20 13:14:50;;;;;;;14.65;11.50;;;;;;;;;;5008316;28;20707;-61
2022/10/20 13:17:17;;;;;;;17.08;11.55;;;;;;;;;;5006804;28;20233;-62
2022/10/20 13:19:45;;;;;;;16.27;10.07;;;;;;;;;;5006797;28;20269;-61
2022/10/20 13:22:26;;;;;;;15.60;10.95;;;;;;;;;;5007254;28;20281;-61
2022/10/20 13:24:51;;;;;;;17.52;11.68;;;;;;;;;;5027470;28;20337;-61
2022/10/20 13:27:16;;;;;;;16.45;11.93;;;;;;;;;;5027047;28;20666;-62
2022/10/20 13:29:42;;;;;;;15.23;11.77;;;;;;;;;;5027650;28;20247;-62
2022/10/20 13:32:08;;;;;;;17.00;11.20;;;;;;;;;;5026925;28;20220;-63
2022/10/20 13:34:36;;;;;;;18.30;12.45;;;;;;;;;;5029622;28;20702;-63
2022/10/20 13:37:15;;;;;;;15.88;11.20;;;;;;;;;;5026857;28;20258;-62
2022/10/20 13:39:56;;;;;;;16.45;11.68;;;;;;;;;;5015900;28;20212;-62
2022/10/20 13:42:31;;;;;;;16.45;11.90;;;;;;;;;;5009056;28;20214;-62
2022/10/20 13:45:01;;;;;;;14.48;11.00;;;;;;;;;;5008471;28;20215;-63
2022/10/20 13:47:32;;;;;;;19.17;12.52;;;;;;;;;;5007860;28;20204;-62
2022/10/20 13:49:59;;;;;;;16.55;11.75;;;;;;;;;;5007573;28;20216;-63
2022/10/20 13:52:25;;;;;;;17.00;12.35;;;;;;;;;;5007755;28;20212;-63
2022/10/20 13:54:51;;;;;;;18.73;11.60;;;;;;;;;;5007249;28;20216;-63
2022/10/20 13:57:30;;;;;;;18.40;13.13;;;;;;;;;;5005643;28;21078;-63
2022/10/20 13:59:56;;;;;;;18.67;12.20;;;;;;;;;;5008103;28;20212;-63
2022/10/20 14:02:23;;;;;;;21.52;13.88;;;;;;;;;;5007891;28;20266;-63
2022/10/20 14:04:50;;;;;;;17.10;12.23;;;;;;;;;;5007015;28;20216;-64
2022/10/20 14:07:16;;;;;;;19.92;13.27;;;;;;;;;;5004063;28;20239;-64
2022/10/20 14:09:42;;;;;;;16.20;12.63;;;;;;;;;;5007538;28;20216;-63
2022/10/20 14:12:11;;;;;;;17.38;12.00;;;;;;;;;;5006422;28;20212;-63
2022/10/20 14:14:37;;;;;;;16.85;12.60;;;;;;;;;;5006952;28;20209;-63
2022/10/20 14:17:03;;;;;;;19.85;12.55;;;;;;;;;;5005985;28;20324;-63
2022/10/20 14:19:29;;;;;;;21.08;13.27;;;;;;;;;;5012641;28;20254;-63
2022/10/20 14:21:55;;;;;;;20.73;13.30;;;;;;;;;;5014480;28;20216;-63
2022/10/20 14:24:24;;;;;;;19.20;13.23;;;;;;;;;;5007308;28;20220;-63
2022/10/20 14:26:50;;;;;;;17.33;12.43;;;;;;;;;;5015905;28;20211;-63